KPQI Airport (Presque Isle Intl) Information

FAA: PQI - ICAO: KPQI

KPQI Airport Location

State Maine
County Aroostook
City Presque Isle
KPQI Airport is 1 miles northwest of Presque Isle, ME.
Latitude 46-41-20.2700N
Longitude 068-02-41.2490W
Elevation 534ft

KPQI Airport METARs

METAR KPQI 181256Z AUTO 28016G23KT 9SM -SN FEW022 BKN035 OVC042 M08/M11 A2926 RMK AO2 SLP942 P0000 T10781111
Altimeter 29.26"
Temperature -7.8°C (18.0°F)
Wind 280° at 16KT with gusts to 23KT
Clouds few at 2,200ft broken at 3,500ft overcast at 4,200ft
Visibility 9.0mi
Time observed: 2022-01-18T12:56:00Z

KPQI Airport Details

Status Operational
Activation April 1940
Ownership Public
Usage Public
Chart HALIFAX
ATC on-site No
Beacon schedule sunset-sunrise
Beacon color clear green

KPQI Airport Contacts

Owner CITY OF PRESQUE ISLE
Owner address 12 SECOND ST, PRESQUE ISLE, ME 04769
Owner phone 207-764-4485
Manager TOM WINSOR - COUNTY ADMINISTRATOR
Manager address PO BOX 179, (26 WESTERN AVE), SOUTH PARIS, ME 04281
Manager phone 207-743-6359

KPQI Airport (Presque Isle Intl) Radio Frequencies

KPQI (Airport) Radio Frequencies

UNICOM 122.8
Common traffic advisory frequency (CTAF) 122.8